createdAt,value
2022-12-22T00:00:25.609Z,1.02
2022-12-22T00:03:15.137Z,1.00
2022-12-22T00:06:01.731Z,1.15
2022-12-22T00:08:47.548Z,0.93
2022-12-22T00:11:33.240Z,1.10
2022-12-22T00:14:19.285Z,1.10
2022-12-22T00:17:05.525Z,1.13
2022-12-22T00:19:52.189Z,1.13
2022-12-22T00:22:48.555Z,1.25
2022-12-22T00:25:37.417Z,1.23
2022-12-22T00:28:33.249Z,1.02
2022-12-22T00:31:18.715Z,1.13
2022-12-22T00:34:04.598Z,1.35
2022-12-22T00:36:51.894Z,1.25
2022-12-22T00:39:37.482Z,1.50
2022-12-22T00:42:23.016Z,1.60
2022-12-22T00:45:08.420Z,1.42
2022-12-22T00:47:54.077Z,1.27
2022-12-22T00:50:50.156Z,1.40
2022-12-22T00:53:36.125Z,1.27
2022-12-22T00:56:24.702Z,1.70
2022-12-22T00:59:11.861Z,1.50
2022-12-22T01:02:06.844Z,1.00
2022-12-22T01:04:52.889Z,1.25
2022-12-22T01:07:40.594Z,1.10
2022-12-22T01:10:31.846Z,1.20
2022-12-22T01:13:30.109Z,1.02
2022-12-22T01:16:15.415Z,0.95
2022-12-22T01:19:00.746Z,0.73
2022-12-22T01:21:48.126Z,0.70
2022-12-22T01:24:41.035Z,0.80
2022-12-22T01:27:27.744Z,0.90
2022-12-22T01:30:16.102Z,1.02
2022-12-22T01:33:16.340Z,0.70
2022-12-22T01:36:01.868Z,0.45
2022-12-22T01:39:00.986Z,0.70
2022-12-22T01:41:46.561Z,0.80
2022-12-22T01:44:39.317Z,0.50
2022-12-22T01:47:46.191Z,0.80
2022-12-22T01:50:36.658Z,0.57
2022-12-22T01:53:32.701Z,0.63
2022-12-22T01:56:18.614Z,0.60
2022-12-22T01:59:08.326Z,0.50
2022-12-22T02:01:58.154Z,0.50
2022-12-22T02:04:54.229Z,0.47
2022-12-22T02:08:06.194Z,0.50
2022-12-22T02:11:32.931Z,0.60
2022-12-22T02:14:48.576Z,0.50
2022-12-22T02:17:53.981Z,0.70
2022-12-22T02:20:39.687Z,0.88
2022-12-22T02:23:37.665Z,0.82
2022-12-22T02:26:56.824Z,1.15
2022-12-22T02:30:02.536Z,1.55
2022-12-22T02:32:52.958Z,0.90
2022-12-22T02:35:49.602Z,0.80
2022-12-22T02:38:48.159Z,0.95
2022-12-22T02:41:38.077Z,1.10
2022-12-22T02:44:50.947Z,0.90
2022-12-22T02:47:36.549Z,0.75
2022-12-22T02:50:51.505Z,0.77
2022-12-22T02:53:38.274Z,0.90
2022-12-22T02:56:27.347Z,0.93
2022-12-22T02:59:13.409Z,1.08
2022-12-22T03:02:03.362Z,0.65
2022-12-22T03:04:49.062Z,0.73
2022-12-22T03:07:34.404Z,0.60
2022-12-22T03:10:20.126Z,0.73
2022-12-22T03:13:05.551Z,0.40
2022-12-22T03:15:51.167Z,0.80
2022-12-22T03:18:36.617Z,0.70
2022-12-22T03:21:22.183Z,0.85
2022-12-22T03:24:07.541Z,0.60
2022-12-22T03:26:34.414Z,0.40
2022-12-22T03:29:01.203Z,0.60
2022-12-22T03:31:28.107Z,0.50
2022-12-22T03:33:55.149Z,0.50
2022-12-22T03:36:22.064Z,0.55
2022-12-22T03:38:48.933Z,0.60
2022-12-22T03:41:34.536Z,0.60
2022-12-22T03:44:20.280Z,0.85
2022-12-22T03:46:47.143Z,0.80
2022-12-22T03:49:14.974Z,0.70
2022-12-22T03:51:43.375Z,0.80
2022-12-22T03:54:12.393Z,0.60
2022-12-22T03:56:39.698Z,0.55
2022-12-22T03:59:06.965Z,0.57
2022-12-22T04:01:37.033Z,0.68
2022-12-22T04:04:04.169Z,0.75
2022-12-22T04:06:31.021Z,0.60
2022-12-22T04:08:58.074Z,0.63
2022-12-22T04:11:43.617Z,0.30
2022-12-22T04:14:10.449Z,0.60
2022-12-22T04:16:37.360Z,0.50
2022-12-22T04:19:04.274Z,0.70
2022-12-22T04:21:31.157Z,0.55
2022-12-22T04:23:58.009Z,0.50
2022-12-22T04:26:25.755Z,0.80
2022-12-22T04:28:53.999Z,0.57
2022-12-22T04:31:21.701Z,0.38
2022-12-22T04:33:48.659Z,0.52
2022-12-22T04:36:15.585Z,0.75
2022-12-22T04:38:42.857Z,0.93
2022-12-22T04:41:09.906Z,0.90
2022-12-22T04:43:36.962Z,0.63
2022-12-22T04:46:04.072Z,0.47
2022-12-22T04:48:31.613Z,1.30
2022-12-22T04:51:00.304Z,1.08
2022-12-22T04:53:28.577Z,0.60
2022-12-22T04:55:58.300Z,0.70
2022-12-22T04:58:25.146Z,0.60
2022-12-22T05:00:52.052Z,0.57
2022-12-22T05:03:19.005Z,0.60
2022-12-22T05:05:45.908Z,0.50
2022-12-22T05:08:12.763Z,0.60
2022-12-22T05:10:39.603Z,0.60
2022-12-22T05:13:06.539Z,1.20
2022-12-22T05:15:35.368Z,0.60
2022-12-22T05:18:02.796Z,0.50
2022-12-22T05:20:30.073Z,0.50
2022-12-22T05:22:58.028Z,0.30
2022-12-22T05:25:27.496Z,0.57
2022-12-22T05:27:58.305Z,0.60
2022-12-22T05:30:25.174Z,0.30
2022-12-22T05:32:52.147Z,0.50
2022-12-22T05:35:19.073Z,0.50
2022-12-22T05:37:46.006Z,0.50
2022-12-22T05:40:13.120Z,0.50
2022-12-22T05:42:40.019Z,0.45
2022-12-22T05:45:15.078Z,0.70
2022-12-22T05:47:43.341Z,0.90
2022-12-22T05:50:12.077Z,0.82
2022-12-22T05:52:38.939Z,0.70
2022-12-22T05:55:07.417Z,0.70
2022-12-22T05:57:34.510Z,1.00
2022-12-22T06:00:01.432Z,0.77
2022-12-22T06:02:28.359Z,0.73
2022-12-22T06:04:55.259Z,0.95
2022-12-22T06:07:22.078Z,1.00
2022-12-22T06:09:48.892Z,1.15
2022-12-22T06:12:15.775Z,1.45
2022-12-22T06:14:42.603Z,2.05
2022-12-22T06:17:09.523Z,1.90
2022-12-22T06:19:36.421Z,1.30
2022-12-22T06:22:03.338Z,1.60
2022-12-22T06:24:33.593Z,1.40
2022-12-22T06:27:01.004Z,1.67
2022-12-22T06:29:28.219Z,3.03
2022-12-22T06:31:55.427Z,3.70
2022-12-22T06:34:22.284Z,4.47
2022-12-22T06:36:49.454Z,4.75
2022-12-22T06:39:16.966Z,4.03
2022-12-22T06:42:02.587Z,4.97
2022-12-22T06:44:29.856Z,7.13
2022-12-22T06:46:56.771Z,8.73
2022-12-22T06:49:23.696Z,6.88
2022-12-22T06:51:50.539Z,6.88
2022-12-22T06:54:20.820Z,3.13
2022-12-22T06:56:52.547Z,2.47
2022-12-22T06:59:19.379Z,4.57
2022-12-22T07:01:46.372Z,4.97
2022-12-22T07:04:19.725Z,2.53
2022-12-22T07:06:47.987Z,3.47
2022-12-22T07:09:14.905Z,4.10
2022-12-22T07:11:41.957Z,3.42
2022-12-22T07:14:08.965Z,2.55
2022-12-22T07:16:35.932Z,4.30
2022-12-22T07:19:03.017Z,4.20
2022-12-22T07:21:29.811Z,3.65
2022-12-22T07:23:56.704Z,2.65
2022-12-22T07:26:23.549Z,2.90
2022-12-22T07:28:50.537Z,2.55
2022-12-22T07:31:18.844Z,2.75
2022-12-22T07:33:45.869Z,3.33
2022-12-22T07:36:12.701Z,4.30
2022-12-22T07:38:42.204Z,4.65
2022-12-22T07:41:28.910Z,6.55
2022-12-22T07:43:57.730Z,11.55
2022-12-22T07:46:26.266Z,14.15
2022-12-22T07:49:12.190Z,18.42
2022-12-22T07:51:40.992Z,20.92
2022-12-22T07:54:11.701Z,25.17
2022-12-22T07:56:39.321Z,11.15
2022-12-22T07:59:07.029Z,8.18
2022-12-22T08:01:34.263Z,7.90
2022-12-22T08:04:01.270Z,8.57
2022-12-22T08:06:28.539Z,9.05
2022-12-22T08:08:55.497Z,8.20
2022-12-22T08:11:22.355Z,8.40
2022-12-22T08:13:50.006Z,7.05
2022-12-22T08:16:18.018Z,8.05
2022-12-22T08:18:44.965Z,9.07
2022-12-22T08:21:11.874Z,13.82
2022-12-22T08:23:38.813Z,8.63
2022-12-22T08:26:12.538Z,6.57
2022-12-22T08:28:44.210Z,5.55
2022-12-22T08:31:11.421Z,5.22
2022-12-22T08:33:38.429Z,4.75
2022-12-22T08:36:08.447Z,5.22
2022-12-22T08:38:36.950Z,4.53
2022-12-22T08:41:03.927Z,3.90
2022-12-22T08:43:31.948Z,4.15
2022-12-22T08:45:59.007Z,4.82
2022-12-22T08:48:25.887Z,6.00
2022-12-22T08:50:52.788Z,4.95
2022-12-22T08:53:54.097Z,5.65
2022-12-22T08:56:06.615Z,3.90
2022-12-22T08:58:33.863Z,4.30
2022-12-22T09:01:00.781Z,4.10
2022-12-22T09:03:27.641Z,3.78
2022-12-22T09:06:03.452Z,3.22
2022-12-22T09:08:30.240Z,3.97
2022-12-22T09:10:57.074Z,4.80
2022-12-22T09:13:23.884Z,4.05
2022-12-22T09:15:50.771Z,4.78
2022-12-22T09:18:17.658Z,4.47
2022-12-22T09:20:44.598Z,5.18
2022-12-22T09:23:11.523Z,5.57
2022-12-22T09:25:38.447Z,5.43
2022-12-22T09:28:07.668Z,5.68
2022-12-22T09:30:34.535Z,5.53
2022-12-22T09:33:01.354Z,6.32
2022-12-22T09:35:28.169Z,6.32
2022-12-22T09:37:54.985Z,7.90
2022-12-22T09:40:22.315Z,7.82
2022-12-22T09:42:49.308Z,9.25
2022-12-22T09:45:20.239Z,12.73
2022-12-22T09:47:53.959Z,14.43
2022-12-22T09:50:25.724Z,15.55
2022-12-22T09:52:59.205Z,16.50
2022-12-22T09:55:26.030Z,15.77
2022-12-22T09:57:56.328Z,16.75
2022-12-22T10:00:28.385Z,17.63
2022-12-22T10:03:24.113Z,17.02
2022-12-22T10:05:57.024Z,19.92
2022-12-22T10:08:32.704Z,20.00
2022-12-22T10:10:59.547Z,17.75
2022-12-22T10:13:26.413Z,19.05
2022-12-22T10:15:53.346Z,18.73
2022-12-22T10:18:23.166Z,17.70
2022-12-22T10:21:19.496Z,16.90
2022-12-22T10:23:47.986Z,14.02
2022-12-22T10:26:28.612Z,13.43
2022-12-22T10:29:15.773Z,12.95
2022-12-22T10:32:11.942Z,11.00
2022-12-22T10:35:13.640Z,10.40
2022-12-22T10:37:40.837Z,10.98
2022-12-22T10:40:20.336Z,8.98
2022-12-22T10:42:50.699Z,10.05
2022-12-22T10:45:22.974Z,7.80
2022-12-22T10:47:52.131Z,6.72
2022-12-22T10:50:19.883Z,6.30
2022-12-22T10:52:52.361Z,6.10
2022-12-22T10:55:23.272Z,4.90
2022-12-22T10:57:50.802Z,6.10
2022-12-22T11:00:29.369Z,6.43
2022-12-22T11:03:00.936Z,6.47
2022-12-22T11:05:28.998Z,7.00
2022-12-22T11:07:56.347Z,7.22
2022-12-22T11:10:34.111Z,7.82
2022-12-22T11:13:20.628Z,6.65
2022-12-22T11:15:47.387Z,6.97
2022-12-22T11:18:51.769Z,6.50
2022-12-22T11:22:09.635Z,6.30
2022-12-22T11:24:42.553Z,6.78
2022-12-22T11:27:28.010Z,7.20
2022-12-22T11:30:09.632Z,6.95
2022-12-22T11:33:16.230Z,6.45
2022-12-22T11:35:59.135Z,6.75
2022-12-22T11:38:41.243Z,7.88
2022-12-22T11:41:14.085Z,8.23
2022-12-22T11:44:14.313Z,7.75
2022-12-22T11:46:47.377Z,8.13
2022-12-22T11:49:23.446Z,7.88
2022-12-22T11:52:03.476Z,8.18
2022-12-22T11:54:57.290Z,8.23
2022-12-22T11:57:33.865Z,10.32
2022-12-22T12:00:10.343Z,8.85
2022-12-22T12:02:56.076Z,10.07
2022-12-22T12:05:32.151Z,9.32
2022-12-22T12:08:27.072Z,11.35
2022-12-22T12:11:03.445Z,11.82
2022-12-22T12:13:37.694Z,12.25
2022-12-22T12:16:29.955Z,12.40
2022-12-22T12:19:26.826Z,12.95
2022-12-22T12:22:00.692Z,12.75
2022-12-22T12:24:51.801Z,13.75
2022-12-22T12:27:42.529Z,14.05
2022-12-22T12:33:15.140Z,17.02
2022-12-22T12:36:14.461Z,17.48
2022-12-22T12:39:17.331Z,19.88
2022-12-22T12:41:55.543Z,17.90
2022-12-22T12:44:26.771Z,16.70
2022-12-22T12:47:07.237Z,16.85
2022-12-22T12:49:34.169Z,14.75
2022-12-22T12:52:02.654Z,13.07
2022-12-22T12:54:29.459Z,13.95
2022-12-22T12:57:00.152Z,14.13
2022-12-22T12:59:43.382Z,13.18
2022-12-22T13:02:32.100Z,12.90
2022-12-22T13:05:28.868Z,13.18
2022-12-22T13:08:15.800Z,12.73
2022-12-22T13:10:54.139Z,13.60
2022-12-22T13:13:24.025Z,13.63
2022-12-22T13:15:59.671Z,13.07
2022-12-22T13:18:26.814Z,13.07
2022-12-22T13:24:22.839Z,11.23
2022-12-22T13:26:42.899Z,9.38
2022-12-22T13:29:12.631Z,9.55
2022-12-22T13:32:19.702Z,9.43
2022-12-22T13:35:28.351Z,9.55
2022-12-22T13:37:40.765Z,8.90
2022-12-22T13:40:25.271Z,9.05
2022-12-22T13:43:02.546Z,8.35
2022-12-22T13:45:45.695Z,8.52
2022-12-22T13:48:45.985Z,6.95
2022-12-22T13:51:22.987Z,7.13
2022-12-22T13:54:10.568Z,8.70
2022-12-22T13:56:53.282Z,8.50
2022-12-22T13:59:31.160Z,8.15
2022-12-22T14:02:03.489Z,8.88
2022-12-22T14:04:31.136Z,8.25
2022-12-22T14:06:58.083Z,8.93
2022-12-22T14:09:28.168Z,9.93
2022-12-22T14:12:01.074Z,8.80
2022-12-22T14:14:39.301Z,9.93
2022-12-22T14:17:17.940Z,10.05
2022-12-22T14:19:44.837Z,9.05
2022-12-22T14:22:16.707Z,7.55
2022-12-22T14:24:46.997Z,6.57
2022-12-22T14:27:30.590Z,7.32
2022-12-22T14:29:58.054Z,6.40
2022-12-22T14:32:37.489Z,5.85
2022-12-22T14:35:14.637Z,5.78
2022-12-22T14:37:41.501Z,4.88
2022-12-22T14:40:28.693Z,4.40
2022-12-22T14:42:56.191Z,4.95
2022-12-22T14:45:24.058Z,5.28
2022-12-22T14:47:52.335Z,5.30
2022-12-22T14:50:21.279Z,4.95
2022-12-22T14:52:52.056Z,5.25
2022-12-22T14:55:32.058Z,5.57
2022-12-22T14:58:05.691Z,5.07
2022-12-22T15:00:35.455Z,7.05
2022-12-22T15:03:23.552Z,5.60
2022-12-22T15:05:51.253Z,5.43
2022-12-22T15:08:38.789Z,5.78
2022-12-22T15:11:15.728Z,6.15
2022-12-22T15:13:43.993Z,6.82
2022-12-22T15:16:16.364Z,6.30
2022-12-22T15:18:43.211Z,4.95
2022-12-22T15:21:12.954Z,5.80
2022-12-22T15:23:40.406Z,6.57
2022-12-22T15:26:07.239Z,6.50
2022-12-22T15:28:34.320Z,6.45
2022-12-22T15:31:02.515Z,6.78
2022-12-22T15:33:30.652Z,6.75
2022-12-22T15:35:57.732Z,8.07
2022-12-22T15:38:25.529Z,6.90
2022-12-22T15:40:52.711Z,7.90
2022-12-22T15:46:07.449Z,7.72
2022-12-22T15:48:36.490Z,9.55
2022-12-22T15:51:04.955Z,28.95
2022-12-22T15:53:33.066Z,11.63
2022-12-22T15:55:59.961Z,11.88
2022-12-22T15:58:31.502Z,14.63
2022-12-22T16:00:58.373Z,12.65
2022-12-22T16:03:25.350Z,11.85
2022-12-22T16:05:53.290Z,112.80
2022-12-22T16:08:28.244Z,88.57
2022-12-22T16:10:55.183Z,18.92
2022-12-22T16:13:26.927Z,39.97
2022-12-22T16:15:54.518Z,43.53
2022-12-22T16:18:21.464Z,96.50
2022-12-22T16:20:52.220Z,17.50
2022-12-22T16:23:24.701Z,12.60
2022-12-22T16:26:00.655Z,15.65
2022-12-22T16:28:28.460Z,12.70
2022-12-22T16:30:55.337Z,11.32
2022-12-22T16:33:22.201Z,15.38
2022-12-22T16:35:49.375Z,14.20
2022-12-22T16:38:19.083Z,15.07
2022-12-22T16:40:49.668Z,13.68
2022-12-22T16:46:15.516Z,14.68
2022-12-22T16:48:46.439Z,13.30
2022-12-22T16:51:19.731Z,13.95
2022-12-22T16:53:46.616Z,12.55
2022-12-22T16:56:18.231Z,12.25
2022-12-22T16:58:46.815Z,13.43
2022-12-22T17:01:37.569Z,14.20
2022-12-22T17:04:08.712Z,16.77
2022-12-22T17:06:36.703Z,17.60
2022-12-22T17:09:05.502Z,24.77
2022-12-22T17:11:34.476Z,17.42
2022-12-22T17:14:34.565Z,18.15
2022-12-22T17:17:01.510Z,14.25
2022-12-22T17:19:28.494Z,12.98
2022-12-22T17:21:56.356Z,10.52
2022-12-22T17:24:28.032Z,74.75
2022-12-22T17:26:58.607Z,10.23
2022-12-22T17:29:25.687Z,9.77
2022-12-22T17:31:56.616Z,11.82
2022-12-22T17:34:24.012Z,10.85
2022-12-22T17:36:51.332Z,12.35
2022-12-22T17:39:21.978Z,10.90
2022-12-22T17:41:56.295Z,10.13
2022-12-22T17:44:25.915Z,11.73
2022-12-22T17:46:53.167Z,15.73
2022-12-22T17:49:22.286Z,13.90
2022-12-22T17:51:49.943Z,9.50
2022-12-22T17:54:25.105Z,8.55
2022-12-22T17:56:54.147Z,17.50
2022-12-22T17:59:20.978Z,16.50
2022-12-22T18:01:48.219Z,12.68
2022-12-22T18:04:15.391Z,10.43
2022-12-22T18:06:42.920Z,14.27
2022-12-22T18:09:20.235Z,10.10
2022-12-22T18:11:47.067Z,6.22
2022-12-22T18:14:14.634Z,6.10
2022-12-22T18:16:43.196Z,5.97
2022-12-22T18:19:10.081Z,6.25
2022-12-22T18:21:36.967Z,5.22
2022-12-22T18:24:04.471Z,4.75
2022-12-22T18:26:31.608Z,5.50
2022-12-22T18:28:58.496Z,5.65
2022-12-22T18:31:26.011Z,4.68
2022-12-22T18:33:53.275Z,5.63
2022-12-22T18:36:29.321Z,6.57
2022-12-22T18:38:56.979Z,3.30
2022-12-22T18:41:25.398Z,3.20
2022-12-22T18:44:02.460Z,3.08
2022-12-22T18:46:29.344Z,3.20
2022-12-22T18:49:01.790Z,2.88
2022-12-22T18:51:32.079Z,3.60
2022-12-22T18:53:58.926Z,3.30
2022-12-22T18:56:25.774Z,4.00
2022-12-22T18:58:52.656Z,2.60
2022-12-22T19:01:24.979Z,2.75
2022-12-22T19:03:54.787Z,2.70
2022-12-22T19:06:22.725Z,2.80
2022-12-22T19:08:50.761Z,11.35
2022-12-22T19:11:19.863Z,4.10
2022-12-22T19:13:49.002Z,6.22
2022-12-22T19:16:21.408Z,8.25
2022-12-22T19:18:48.331Z,5.05
2022-12-22T19:21:16.868Z,3.42
2022-12-22T19:23:45.320Z,3.70
2022-12-22T19:26:30.081Z,4.50
2022-12-22T19:29:01.137Z,4.80
2022-12-22T19:31:33.445Z,4.85
2022-12-22T19:34:03.861Z,2.87
2022-12-22T19:36:31.669Z,2.60
2022-12-22T19:39:04.681Z,3.60
2022-12-22T19:41:48.316Z,2.70
2022-12-22T19:44:20.022Z,2.40
2022-12-22T19:46:47.483Z,6.10
2022-12-22T19:49:19.618Z,4.25
2022-12-22T19:51:46.729Z,6.93
2022-12-22T19:54:13.610Z,3.03
2022-12-22T19:56:41.642Z,5.57
2022-12-22T19:59:25.566Z,3.22
2022-12-22T20:01:55.985Z,4.68
2022-12-22T20:04:22.988Z,6.20
2022-12-22T20:06:49.821Z,3.33
2022-12-22T20:09:16.916Z,2.90
2022-12-22T20:11:44.388Z,2.85
2022-12-22T20:14:18.530Z,2.78
2022-12-22T20:16:45.684Z,3.75
2022-12-22T20:19:16.735Z,2.95
2022-12-22T20:21:43.746Z,3.60
2022-12-22T20:24:19.789Z,3.00
2022-12-22T20:26:53.508Z,3.47
2022-12-22T20:29:21.495Z,4.88
2022-12-22T20:31:48.354Z,3.20
2022-12-22T20:34:15.191Z,2.70
2022-12-22T20:36:43.376Z,2.55
2022-12-22T20:39:16.843Z,1.90
2022-12-22T20:41:50.498Z,2.58
2022-12-22T20:44:19.643Z,7.93
2022-12-22T20:46:46.576Z,2.10
2022-12-22T20:49:15.577Z,2.45
2022-12-22T20:51:43.585Z,2.45
2022-12-22T20:54:14.933Z,2.47
2022-12-22T20:56:43.839Z,1.85
2022-12-22T20:59:17.593Z,1.60
2022-12-22T21:01:46.335Z,1.77
2022-12-22T21:04:14.708Z,2.03
2022-12-22T21:07:00.008Z,1.55
2022-12-22T21:09:26.946Z,1.58
2022-12-22T21:11:53.743Z,1.70
2022-12-22T21:14:20.614Z,1.10
2022-12-22T21:16:49.084Z,1.67
2022-12-22T21:19:18.254Z,1.20
2022-12-22T21:21:46.236Z,1.38
2022-12-22T21:24:13.102Z,1.10
2022-12-22T21:26:47.554Z,1.58
2022-12-22T21:29:22.085Z,1.10
2022-12-22T21:31:49.480Z,1.38
2022-12-22T21:34:16.851Z,1.13
2022-12-22T21:36:47.037Z,1.55
2022-12-22T21:39:29.737Z,1.20
2022-12-22T21:42:00.032Z,2.63
2022-12-22T21:44:28.088Z,0.98
2022-12-22T21:46:55.198Z,1.80
2022-12-22T21:49:24.885Z,1.45
2022-12-22T21:51:52.900Z,1.55
2022-12-22T21:54:21.325Z,2.10
2022-12-22T21:56:49.087Z,1.60
2022-12-22T21:59:16.738Z,2.45
2022-12-22T22:01:45.016Z,1.40
2022-12-22T22:04:12.289Z,2.38
2022-12-22T22:06:39.301Z,2.22
2022-12-22T22:09:07.226Z,2.15
2022-12-22T22:11:54.557Z,1.73
2022-12-22T22:14:21.653Z,2.00
2022-12-22T22:16:49.566Z,2.10
2022-12-22T22:19:18.004Z,1.83
2022-12-22T22:21:48.767Z,2.38
2022-12-22T22:24:15.703Z,1.50
2022-12-22T22:26:45.505Z,1.70
2022-12-22T22:29:12.402Z,1.80
2022-12-22T22:31:40.533Z,1.70
2022-12-22T22:34:07.392Z,1.60
2022-12-22T22:36:34.337Z,2.00
2022-12-22T22:39:01.178Z,2.13
2022-12-22T22:41:32.354Z,2.25
2022-12-22T22:44:02.265Z,2.55
2022-12-22T22:46:29.344Z,2.58
2022-12-22T22:48:58.627Z,2.42
2022-12-22T22:51:25.652Z,2.10
2022-12-22T22:53:55.734Z,2.60
2022-12-22T22:56:23.322Z,2.30
2022-12-22T22:58:50.521Z,2.53
2022-12-22T23:01:18.747Z,3.13
2022-12-22T23:03:45.678Z,2.50
2022-12-22T23:06:13.960Z,2.58
2022-12-22T23:08:40.863Z,2.88
2022-12-22T23:11:13.529Z,2.58
2022-12-22T23:13:40.672Z,3.50
2022-12-22T23:16:07.812Z,2.30
2022-12-22T23:18:35.053Z,3.10
2022-12-22T23:21:04.899Z,3.67
2022-12-22T23:23:33.193Z,2.80
2022-12-22T23:26:00.201Z,2.35
2022-12-22T23:28:27.079Z,2.58
2022-12-22T23:30:54.333Z,2.85
2022-12-22T23:33:21.554Z,3.28
2022-12-22T23:35:49.999Z,2.60
2022-12-22T23:38:18.908Z,3.13
2022-12-22T23:40:54.435Z,3.53
2022-12-22T23:43:22.135Z,2.75
2022-12-22T23:45:49.050Z,3.20
2022-12-22T23:48:16.127Z,3.60
2022-12-22T23:50:46.651Z,2.83
2022-12-22T23:53:15.035Z,3.30
2022-12-22T23:55:48.234Z,3.03
2022-12-22T23:58:16.195Z,3.45
